sensor_id;sensor_type;location;lat;lon;timestamp;pressure;altitude;pressure_sealevel;temperature;humidity
20455;BME280;10386;54.314;10.022;2023-05-29T00:00:57;102595.94;;;9.80;100.00
20455;BME280;10386;54.314;10.022;2023-05-29T00:03:24;102598.25;;;9.67;100.00
20455;BME280;10386;54.314;10.022;2023-05-29T00:05:51;102608.50;;;9.59;100.00
20455;BME280;10386;54.314;10.022;2023-05-29T00:08:18;102605.78;;;9.59;100.00
20455;BME280;10386;54.314;10.022;2023-05-29T00:10:44;102607.03;;;9.51;100.00
20455;BME280;10386;54.314;10.022;2023-05-29T00:13:11;102606.84;;;9.56;100.00
20455;BME280;10386;54.314;10.022;2023-05-29T00:15:38;102607.03;;;9.51;100.00
20455;BME280;10386;54.314;10.022;2023-05-29T00:18:05;102602.66;;;9.47;100.00
20455;BME280;10386;54.314;10.022;2023-05-29T00:20:33;102602.06;;;9.39;100.00
20455;BME280;10386;54.314;10.022;2023-05-29T00:23:01;102595.94;;;9.34;100.00
20455;BME280;10386;54.314;10.022;2023-05-29T00:25:29;102595.22;;;9.29;100.00
20455;BME280;10386;54.314;10.022;2023-05-29T00:27:56;102597.25;;;9.24;100.00
20455;BME280;10386;54.314;10.022;2023-05-29T00:30:23;102591.84;;;9.23;100.00
20455;BME280;10386;54.314;10.022;2023-05-29T00:32:50;102595.59;;;9.20;100.00
20455;BME280;10386;54.314;10.022;2023-05-29T00:35:18;102605.47;;;9.21;100.00
20455;BME280;10386;54.314;10.022;2023-05-29T00:37:45;102604.06;;;9.11;100.00
20455;BME280;10386;54.314;10.022;2023-05-29T00:40:12;102599.50;;;9.12;100.00
20455;BME280;10386;54.314;10.022;2023-05-29T00:42:39;102594.41;;;9.04;100.00
20455;BME280;10386;54.314;10.022;2023-05-29T00:45:06;102593.72;;;8.98;100.00
20455;BME280;10386;54.314;10.022;2023-05-29T00:47:33;102601.03;;;8.96;100.00
20455;BME280;10386;54.314;10.022;2023-05-29T00:50:01;102605.75;;;8.89;100.00
20455;BME280;10386;54.314;10.022;2023-05-29T00:52:28;102609.47;;;8.87;100.00
20455;BME280;10386;54.314;10.022;2023-05-29T00:54:56;102605.13;;;8.83;100.00
20455;BME280;10386;54.314;10.022;2023-05-29T00:57:23;102612.66;;;8.73;100.00
20455;BME280;10386;54.314;10.022;2023-05-29T00:59:50;102613.00;;;8.64;100.00
20455;BME280;10386;54.314;10.022;2023-05-29T01:02:17;102610.63;;;8.55;100.00
20455;BME280;10386;54.314;10.022;2023-05-29T01:04:45;102611.69;;;8.50;100.00
20455;BME280;10386;54.314;10.022;2023-05-29T01:07:12;102601.19;;;8.41;100.00
20455;BME280;10386;54.314;10.022;2023-05-29T01:09:43;102605.00;;;8.35;100.00
20455;BME280;10386;54.314;10.022;2023-05-29T01:27:52;102631.25;;;8.05;100.00
20455;BME280;10386;54.314;10.022;2023-05-29T01:30:20;102643.94;;;8.03;100.00
20455;BME280;10386;54.314;10.022;2023-05-29T01:32:48;102645.06;;;7.96;100.00
20455;BME280;10386;54.314;10.022;2023-05-29T01:35:16;102639.66;;;7.96;100.00
20455;BME280;10386;54.314;10.022;2023-05-29T01:37:43;102645.44;;;7.85;100.00
20455;BME280;10386;54.314;10.022;2023-05-29T01:40:12;102641.16;;;7.78;100.00
20455;BME280;10386;54.314;10.022;2023-05-29T01:42:40;102637.69;;;7.73;100.00
20455;BME280;10386;54.314;10.022;2023-05-29T01:45:07;102639.69;;;7.67;100.00
20455;BME280;10386;54.314;10.022;2023-05-29T01:47:35;102641.84;;;7.56;100.00
20455;BME280;10386;54.314;10.022;2023-05-29T01:50:04;102642.03;;;7.50;100.00
20455;BME280;10386;54.314;10.022;2023-05-29T01:52:31;102632.19;;;7.47;100.00
20455;BME280;10386;54.314;10.022;2023-05-29T01:54:58;102630.56;;;7.42;100.00
20455;BME280;10386;54.314;10.022;2023-05-29T01:57:25;102642.31;;;7.41;100.00
20455;BME280;10386;54.314;10.022;2023-05-29T01:59:53;102630.75;;;7.36;100.00
20455;BME280;10386;54.314;10.022;2023-05-29T02:02:21;102639.63;;;7.39;100.00
20455;BME280;10386;54.314;10.022;2023-05-29T02:04:49;102625.34;;;7.36;100.00
20455;BME280;10386;54.314;10.022;2023-05-29T02:07:18;102636.94;;;7.39;100.00
20455;BME280;10386;54.314;10.022;2023-05-29T02:09:46;102637.19;;;7.30;100.00
20455;BME280;10386;54.314;10.022;2023-05-29T02:12:12;102639.81;;;7.33;100.00
20455;BME280;10386;54.314;10.022;2023-05-29T02:14:41;102642.50;;;7.33;100.00
20455;BME280;10386;54.314;10.022;2023-05-29T02:17:08;102630.94;;;7.30;100.00
20455;BME280;10386;54.314;10.022;2023-05-29T02:19:35;102624.81;;;7.22;100.00
20455;BME280;10386;54.314;10.022;2023-05-29T02:22:03;102626.84;;;7.15;100.00
20455;BME280;10386;54.314;10.022;2023-05-29T02:24:30;102623.00;;;7.24;100.00
20455;BME280;10386;54.314;10.022;2023-05-29T02:26:57;102623.78;;;7.27;100.00
20455;BME280;10386;54.314;10.022;2023-05-29T02:29:24;102629.28;;;7.24;100.00
20455;BME280;10386;54.314;10.022;2023-05-29T02:31:50;102627.50;;;7.23;100.00
20455;BME280;10386;54.314;10.022;2023-05-29T02:34:17;102624.78;;;7.25;100.00
20455;BME280;10386;54.314;10.022;2023-05-29T02:36:44;102625.63;;;7.27;100.00
20455;BME280;10386;54.314;10.022;2023-05-29T02:39:11;102619.38;;;7.25;100.00
20455;BME280;10386;54.314;10.022;2023-05-29T02:41:39;102608.41;;;7.29;100.00
20455;BME280;10386;54.314;10.022;2023-05-29T02:44:06;102614.13;;;7.19;100.00
20455;BME280;10386;54.314;10.022;2023-05-29T02:46:32;102614.34;;;7.11;100.00
20455;BME280;10386;54.314;10.022;2023-05-29T02:48:59;102605.16;;;7.17;100.00
20455;BME280;10386;54.314;10.022;2023-05-29T02:51:26;102613.78;;;7.00;100.00
20455;BME280;10386;54.314;10.022;2023-05-29T02:53:54;102609.41;;;6.96;100.00
20455;BME280;10386;54.314;10.022;2023-05-29T02:56:20;102609.97;;;7.07;100.00
20455;BME280;10386;54.314;10.022;2023-05-29T02:58:50;102615.28;;;7.10;100.00
20455;BME280;10386;54.314;10.022;2023-05-29T03:01:17;102618.06;;;7.07;100.00
20455;BME280;10386;54.314;10.022;2023-05-29T03:03:44;102612.00;;;6.99;100.00
20455;BME280;10386;54.314;10.022;2023-05-29T03:06:11;102613.88;;;6.97;100.00
20455;BME280;10386;54.314;10.022;2023-05-29T03:08:42;102607.56;;;6.97;100.00
20455;BME280;10386;54.314;10.022;2023-05-29T03:11:12;102611.34;;;6.91;100.00
20455;BME280;10386;54.314;10.022;2023-05-29T03:13:38;102613.97;;;6.93;100.00
20455;BME280;10386;54.314;10.022;2023-05-29T03:16:05;102613.13;;;6.92;100.00
20455;BME280;10386;54.314;10.022;2023-05-29T03:18:32;102605.00;;;6.92;100.00
20455;BME280;10386;54.314;10.022;2023-05-29T03:20:59;102610.00;;;7.06;100.00
20455;BME280;10386;54.314;10.022;2023-05-29T03:23:26;102605.34;;;7.11;100.00
20455;BME280;10386;54.314;10.022;2023-05-29T03:25:54;102611.09;;;7.00;100.00
20455;BME280;10386;54.314;10.022;2023-05-29T03:28:22;102596.13;;;7.18;100.00
20455;BME280;10386;54.314;10.022;2023-05-29T03:30:49;102602.22;;;7.26;100.00
20455;BME280;10386;54.314;10.022;2023-05-29T03:33:15;102609.72;;;7.45;100.00
20455;BME280;10386;54.314;10.022;2023-05-29T03:35:42;102615.84;;;7.52;100.00
20455;BME280;10386;54.314;10.022;2023-05-29T03:38:09;102609.41;;;7.56;100.00
20455;BME280;10386;54.314;10.022;2023-05-29T03:40:36;102604.00;;;7.56;100.00
20455;BME280;10386;54.314;10.022;2023-05-29T03:43:03;102613.72;;;7.61;100.00
20455;BME280;10386;54.314;10.022;2023-05-29T03:45:30;102612.56;;;7.70;100.00
20455;BME280;10386;54.314;10.022;2023-05-29T03:47:57;102613.31;;;7.75;100.00
20455;BME280;10386;54.314;10.022;2023-05-29T03:50:24;102622.75;;;7.89;100.00
20455;BME280;10386;54.314;10.022;2023-05-29T03:52:51;102608.44;;;7.86;100.00
20455;BME280;10386;54.314;10.022;2023-05-29T03:55:17;102607.38;;;7.91;100.00
20455;BME280;10386;54.314;10.022;2023-05-29T03:57:45;102608.75;;;8.04;100.00
20455;BME280;10386;54.314;10.022;2023-05-29T04:00:12;102604.91;;;8.11;100.00
20455;BME280;10386;54.314;10.022;2023-05-29T04:02:40;102606.41;;;8.21;100.00
20455;BME280;10386;54.314;10.022;2023-05-29T04:05:08;102608.69;;;8.33;100.00
20455;BME280;10386;54.314;10.022;2023-05-29T04:07:39;102617.38;;;8.42;100.00
20455;BME280;10386;54.314;10.022;2023-05-29T04:10:06;102617.28;;;8.45;100.00
20455;BME280;10386;54.314;10.022;2023-05-29T04:12:33;102624.34;;;8.49;100.00
20455;BME280;10386;54.314;10.022;2023-05-29T04:15:00;102629.50;;;8.83;100.00
20455;BME280;10386;54.314;10.022;2023-05-29T04:17:27;102623.81;;;9.60;100.00
20455;BME280;10386;54.314;10.022;2023-05-29T04:19:54;102624.31;;;10.37;100.00
20455;BME280;10386;54.314;10.022;2023-05-29T04:22:21;102612.00;;;10.29;100.00
20455;BME280;10386;54.314;10.022;2023-05-29T04:24:48;102612.03;;;11.10;100.00
20455;BME280;10386;54.314;10.022;2023-05-29T04:27:15;102604.34;;;11.58;100.00
20455;BME280;10386;54.314;10.022;2023-05-29T04:29:42;102608.44;;;11.85;100.00
20455;BME280;10386;54.314;10.022;2023-05-29T04:32:09;102607.44;;;11.69;100.00
20455;BME280;10386;54.314;10.022;2023-05-29T04:34:38;102606.47;;;11.31;100.00
20455;BME280;10386;54.314;10.022;2023-05-29T04:37:14;102610.56;;;10.62;100.00
20455;BME280;10386;54.314;10.022;2023-05-29T04:39:41;102619.84;;;10.36;100.00
20455;BME280;10386;54.314;10.022;2023-05-29T04:42:08;102623.38;;;10.17;100.00
20455;BME280;10386;54.314;10.022;2023-05-29T04:44:35;102627.75;;;10.19;100.00
20455;BME280;10386;54.314;10.022;2023-05-29T04:47:02;102630.72;;;10.13;100.00
20455;BME280;10386;54.314;10.022;2023-05-29T04:49:29;102632.03;;;10.26;100.00
20455;BME280;10386;54.314;10.022;2023-05-29T04:51:56;102636.41;;;9.84;100.00
20455;BME280;10386;54.314;10.022;2023-05-29T04:54:27;102645.56;;;10.05;100.00
20455;BME280;10386;54.314;10.022;2023-05-29T04:56:54;102652.00;;;10.02;100.00
20455;BME280;10386;54.314;10.022;2023-05-29T04:59:21;102641.97;;;10.26;100.00
20455;BME280;10386;54.314;10.022;2023-05-29T05:01:48;102640.34;;;10.43;100.00
20455;BME280;10386;54.314;10.022;2023-05-29T05:04:15;102636.59;;;10.46;100.00
20455;BME280;10386;54.314;10.022;2023-05-29T05:06:42;102644.97;;;10.41;100.00
20455;BME280;10386;54.314;10.022;2023-05-29T05:09:10;102645.34;;;10.32;100.00
20455;BME280;10386;54.314;10.022;2023-05-29T05:11:37;102635.91;;;10.19;100.00
20455;BME280;10386;54.314;10.022;2023-05-29T05:14:04;102640.78;;;10.11;100.00
20455;BME280;10386;54.314;10.022;2023-05-29T05:16:31;102651.06;;;10.03;100.00
20455;BME280;10386;54.314;10.022;2023-05-29T05:19:00;102643.56;;;10.31;100.00
20455;BME280;10386;54.314;10.022;2023-05-29T05:21:26;102639.56;;;10.40;100.00
20455;BME280;10386;54.314;10.022;2023-05-29T05:23:53;102632.81;;;10.50;100.00
20455;BME280;10386;54.314;10.022;2023-05-29T05:26:24;102636.16;;;10.56;100.00
20455;BME280;10386;54.314;10.022;2023-05-29T05:28:53;102638.88;;;10.56;100.00
20455;BME280;10386;54.314;10.022;2023-05-29T05:31:20;102636.28;;;10.53;100.00
20455;BME280;10386;54.314;10.022;2023-05-29T05:33:47;102632.19;;;10.43;100.00
20455;BME280;10386;54.314;10.022;2023-05-29T05:36:14;102622.88;;;10.70;100.00
20455;BME280;10386;54.314;10.022;2023-05-29T05:38:41;102632.94;;;10.47;100.00
20455;BME280;10386;54.314;10.022;2023-05-29T05:41:07;102635.78;;;10.44;100.00
20455;BME280;10386;54.314;10.022;2023-05-29T05:43:34;102639.69;;;10.58;100.00
20455;BME280;10386;54.314;10.022;2023-05-29T05:46:01;102635.59;;;10.90;100.00
20455;BME280;10386;54.314;10.022;2023-05-29T05:48:28;102629.75;;;10.79;100.00
20455;BME280;10386;54.314;10.022;2023-05-29T05:50:55;102630.53;;;11.20;100.00
20455;BME280;10386;54.314;10.022;2023-05-29T05:53:22;102617.44;;;11.30;100.00
20455;BME280;10386;54.314;10.022;2023-05-29T05:55:49;102629.69;;;11.20;100.00
20455;BME280;10386;54.314;10.022;2023-05-29T05:58:16;102626.25;;;11.35;100.00
20455;BME280;10386;54.314;10.022;2023-05-29T06:00:43;102622.13;;;10.87;100.00
20455;BME280;10386;54.314;10.022;2023-05-29T06:03:10;102621.50;;;10.80;100.00
20455;BME280;10386;54.314;10.022;2023-05-29T06:05:37;102632.94;;;11.28;100.00
20455;BME280;10386;54.314;10.022;2023-05-29T06:08:06;102630.66;;;11.37;100.00
20455;BME280;10386;54.314;10.022;2023-05-29T06:10:35;102633.53;;;11.73;100.00
20455;BME280;10386;54.314;10.022;2023-05-29T06:13:04;102638.97;;;11.73;100.00
20455;BME280;10386;54.314;10.022;2023-05-29T06:15:31;102632.50;;;11.57;100.00
20455;BME280;10386;54.314;10.022;2023-05-29T06:17:58;102637.72;;;11.80;100.00
20455;BME280;10386;54.314;10.022;2023-05-29T06:20:25;102637.44;;;11.86;100.00
20455;BME280;10386;54.314;10.022;2023-05-29T06:22:54;102633.25;;;12.51;100.00
20455;BME280;10386;54.314;10.022;2023-05-29T06:25:21;102646.97;;;13.99;100.00
20455;BME280;10386;54.314;10.022;2023-05-29T06:27:47;102620.84;;;14.26;100.00
20455;BME280;10386;54.314;10.022;2023-05-29T06:30:14;102613.31;;;13.98;100.00
20455;BME280;10386;54.314;10.022;2023-05-29T06:32:41;102602.91;;;14.67;100.00
20455;BME280;10386;54.314;10.022;2023-05-29T06:35:08;102600.34;;;15.78;100.00
20455;BME280;10386;54.314;10.022;2023-05-29T06:37:35;102589.53;;;16.70;100.00
20455;BME280;10386;54.314;10.022;2023-05-29T06:40:02;102556.97;;;15.44;100.00
20455;BME280;10386;54.314;10.022;2023-05-29T06:42:34;102577.28;;;14.54;100.00
20455;BME280;10386;54.314;10.022;2023-05-29T06:45:02;102598.03;;;14.72;100.00
20455;BME280;10386;54.314;10.022;2023-05-29T06:47:29;102592.91;;;13.90;100.00
20455;BME280;10386;54.314;10.022;2023-05-29T06:49:55;102593.22;;;15.05;100.00
20455;BME280;10386;54.314;10.022;2023-05-29T06:52:22;102569.81;;;14.85;100.00
20455;BME280;10386;54.314;10.022;2023-05-29T06:54:49;102587.44;;;14.05;100.00
20455;BME280;10386;54.314;10.022;2023-05-29T06:57:16;102582.47;;;14.43;100.00
20455;BME280;10386;54.314;10.022;2023-05-29T06:59:43;102587.44;;;13.90;100.00
20455;BME280;10386;54.314;10.022;2023-05-29T07:02:09;102595.16;;;14.44;100.00
20455;BME280;10386;54.314;10.022;2023-05-29T07:04:37;102592.63;;;14.10;100.00
20455;BME280;10386;54.314;10.022;2023-05-29T07:07:06;102594.94;;;14.78;100.00
20455;BME280;10386;54.314;10.022;2023-05-29T07:09:33;102588.66;;;15.05;100.00
20455;BME280;10386;54.314;10.022;2023-05-29T07:12:00;102588.25;;;15.54;100.00
20455;BME280;10386;54.314;10.022;2023-05-29T07:14:27;102560.72;;;14.71;100.00
20455;BME280;10386;54.314;10.022;2023-05-29T07:16:53;102571.84;;;14.97;100.00
20455;BME280;10386;54.314;10.022;2023-05-29T07:19:20;102590.03;;;14.69;100.00
20455;BME280;10386;54.314;10.022;2023-05-29T07:21:48;102583.88;;;15.22;100.00
20455;BME280;10386;54.314;10.022;2023-05-29T07:24:15;102566.56;;;14.94;100.00
20455;BME280;10386;54.314;10.022;2023-05-29T07:26:42;102573.59;;;14.24;100.00
20455;BME280;10386;54.314;10.022;2023-05-29T07:29:09;102595.72;;;14.80;100.00
20455;BME280;10386;54.314;10.022;2023-05-29T07:31:36;102561.25;;;14.48;100.00
20455;BME280;10386;54.314;10.022;2023-05-29T07:34:03;102565.69;;;14.64;100.00
20455;BME280;10386;54.314;10.022;2023-05-29T07:36:30;102584.66;;;14.81;100.00
20455;BME280;10386;54.314;10.022;2023-05-29T07:39:00;102582.81;;;14.82;100.00
20455;BME280;10386;54.314;10.022;2023-05-29T07:41:26;102588.56;;;14.48;100.00
20455;BME280;10386;54.314;10.022;2023-05-29T07:43:53;102584.59;;;14.38;100.00
20455;BME280;10386;54.314;10.022;2023-05-29T07:46:22;102608.84;;;15.03;100.00
20455;BME280;10386;54.314;10.022;2023-05-29T07:48:49;102587.94;;;15.45;100.00
20455;BME280;10386;54.314;10.022;2023-05-29T07:51:16;102593.06;;;15.21;100.00
20455;BME280;10386;54.314;10.022;2023-05-29T07:53:45;102593.72;;;15.54;100.00
20455;BME280;10386;54.314;10.022;2023-05-29T07:56:12;102570.22;;;15.78;100.00
20455;BME280;10386;54.314;10.022;2023-05-29T07:58:40;102544.19;;;15.02;100.00
20455;BME280;10386;54.314;10.022;2023-05-29T08:01:08;102558.59;;;14.76;100.00
20455;BME280;10386;54.314;10.022;2023-05-29T08:03:34;102572.53;;;15.15;100.00
20455;BME280;10386;54.314;10.022;2023-05-29T08:06:02;102582.22;;;15.20;100.00
20455;BME280;10386;54.314;10.022;2023-05-29T08:08:29;102561.34;;;15.33;100.00
20455;BME280;10386;54.314;10.022;2023-05-29T08:10:57;102559.56;;;15.60;100.00
20455;BME280;10386;54.314;10.022;2023-05-29T08:13:24;102550.34;;;15.05;100.00
20455;BME280;10386;54.314;10.022;2023-05-29T08:15:51;102546.03;;;15.30;100.00
20455;BME280;10386;54.314;10.022;2023-05-29T08:18:18;102547.66;;;15.33;100.00
20455;BME280;10386;54.314;10.022;2023-05-29T08:20:44;102555.41;;;15.40;100.00
20455;BME280;10386;54.314;10.022;2023-05-29T08:23:11;102543.63;;;15.66;100.00
20455;BME280;10386;54.314;10.022;2023-05-29T08:25:38;102527.56;;;15.74;100.00
20455;BME280;10386;54.314;10.022;2023-05-29T08:28:07;102523.78;;;15.63;100.00
20455;BME280;10386;54.314;10.022;2023-05-29T08:30:34;102532.78;;;16.32;100.00
20455;BME280;10386;54.314;10.022;2023-05-29T08:33:01;102499.13;;;16.03;100.00
20455;BME280;10386;54.314;10.022;2023-05-29T08:35:28;102497.53;;;15.73;100.00
20455;BME280;10386;54.314;10.022;2023-05-29T08:37:55;102515.19;;;16.22;100.00
20455;BME280;10386;54.314;10.022;2023-05-29T08:40:21;102513.28;;;16.75;100.00
20455;BME280;10386;54.314;10.022;2023-05-29T08:43:03;102468.94;;;16.17;100.00
20455;BME280;10386;54.314;10.022;2023-05-29T08:45:42;102512.88;;;17.18;100.00
20455;BME280;10386;54.314;10.022;2023-05-29T08:48:11;102485.66;;;17.89;100.00
20455;BME280;10386;54.314;10.022;2023-05-29T08:50:44;102459.00;;;17.66;100.00
20455;BME280;10386;54.314;10.022;2023-05-29T08:53:16;102468.75;;;17.70;100.00
20455;BME280;10386;54.314;10.022;2023-05-29T08:55:43;102448.09;;;18.23;100.00
20455;BME280;10386;54.314;10.022;2023-05-29T08:58:11;102439.38;;;17.83;100.00
20455;BME280;10386;54.314;10.022;2023-05-29T09:00:38;102460.94;;;17.28;100.00
20455;BME280;10386;54.314;10.022;2023-05-29T09:03:07;102527.50;;;17.19;100.00
20455;BME280;10386;54.314;10.022;2023-05-29T09:05:34;102502.69;;;17.08;100.00
20455;BME280;10386;54.314;10.022;2023-05-29T09:08:09;102485.78;;;17.14;100.00
20455;BME280;10386;54.314;10.022;2023-05-29T09:10:40;102478.81;;;17.82;100.00
20455;BME280;10386;54.314;10.022;2023-05-29T09:13:07;102475.22;;;17.45;100.00
20455;BME280;10386;54.314;10.022;2023-05-29T09:15:36;102489.31;;;18.00;100.00
20455;BME280;10386;54.314;10.022;2023-05-29T09:18:06;102453.25;;;18.28;100.00
20455;BME280;10386;54.314;10.022;2023-05-29T09:20:35;102477.72;;;18.54;100.00
20455;BME280;10386;54.314;10.022;2023-05-29T09:23:07;102496.06;;;18.19;100.00
20455;BME280;10386;54.314;10.022;2023-05-29T09:25:39;102505.75;;;18.59;100.00
20455;BME280;10386;54.314;10.022;2023-05-29T09:28:08;102488.06;;;18.74;100.00
20455;BME280;10386;54.314;10.022;2023-05-29T09:30:45;102467.84;;;18.52;100.00
20455;BME280;10386;54.314;10.022;2023-05-29T09:33:15;102473.25;;;18.07;100.00
20455;BME280;10386;54.314;10.022;2023-05-29T09:35:47;102483.19;;;18.43;100.00
20455;BME280;10386;54.314;10.022;2023-05-29T09:38:19;102495.72;;;18.93;100.00
20455;BME280;10386;54.314;10.022;2023-05-29T09:41:06;102476.13;;;19.08;100.00
20455;BME280;10386;54.314;10.022;2023-05-29T09:43:33;102485.47;;;19.06;100.00
20455;BME280;10386;54.314;10.022;2023-05-29T09:46:01;102493.66;;;18.62;100.00
20455;BME280;10386;54.314;10.022;2023-05-29T09:48:29;102483.75;;;18.59;100.00
20455;BME280;10386;54.314;10.022;2023-05-29T09:50:56;102501.31;;;19.15;100.00
20455;BME280;10386;54.314;10.022;2023-05-29T09:53:25;102488.06;;;18.74;100.00
20455;BME280;10386;54.314;10.022;2023-05-29T09:55:54;102497.00;;;19.11;100.00
20455;BME280;10386;54.314;10.022;2023-05-29T09:58:22;102484.31;;;19.32;100.00
20455;BME280;10386;54.314;10.022;2023-05-29T10:00:51;102492.91;;;18.60;100.00
20455;BME280;10386;54.314;10.022;2023-05-29T10:03:21;102508.22;;;19.31;100.00
20455;BME280;10386;54.314;10.022;2023-05-29T10:05:55;102487.41;;;19.27;100.00
20455;BME280;10386;54.314;10.022;2023-05-29T10:08:25;102488.72;;;18.89;100.00
20455;BME280;10386;54.314;10.022;2023-05-29T10:10:59;102505.16;;;19.12;100.00
20455;BME280;10386;54.314;10.022;2023-05-29T10:13:35;102479.72;;;19.09;99.72
20455;BME280;10386;54.314;10.022;2023-05-29T10:16:03;102494.06;;;19.47;98.52
20455;BME280;10386;54.314;10.022;2023-05-29T10:18:42;102486.19;;;19.64;96.68
20455;BME280;10386;54.314;10.022;2023-05-29T10:21:12;102495.91;;;19.90;96.65
20455;BME280;10386;54.314;10.022;2023-05-29T10:23:43;102488.41;;;19.48;93.74
20455;BME280;10386;54.314;10.022;2023-05-29T10:26:15;102467.25;;;19.59;91.21
20455;BME280;10386;54.314;10.022;2023-05-29T10:28:46;102477.66;;;19.34;90.97
20455;BME280;10386;54.314;10.022;2023-05-29T10:31:20;102479.63;;;19.10;91.23
20455;BME280;10386;54.314;10.022;2023-05-29T10:36:35;102516.34;;;19.54;94.10
20455;BME280;10386;54.314;10.022;2023-05-29T10:39:04;102525.38;;;19.56;96.38
20455;BME280;10386;54.314;10.022;2023-05-29T10:41:31;102523.72;;;19.32;95.87
20455;BME280;10386;54.314;10.022;2023-05-29T10:44:00;102510.84;;;20.41;93.21
20455;BME280;10386;54.314;10.022;2023-05-29T10:49:21;102489.72;;;20.51;91.64
20455;BME280;10386;54.314;10.022;2023-05-29T10:51:48;102466.09;;;19.84;89.97
20455;BME280;10386;54.314;10.022;2023-05-29T10:54:17;102489.03;;;20.27;90.04
20455;BME280;10386;54.314;10.022;2023-05-29T10:57:00;102516.47;;;19.86;91.18
20455;BME280;10386;54.314;10.022;2023-05-29T10:59:27;102503.97;;;19.71;91.52
20455;BME280;10386;54.314;10.022;2023-05-29T11:01:55;102478.72;;;19.86;88.54
20455;BME280;10386;54.314;10.022;2023-05-29T11:06:54;102473.47;;;19.83;89.03
20455;BME280;10386;54.314;10.022;2023-05-29T11:09:34;102522.59;;;19.78;91.47
20455;BME280;10386;54.314;10.022;2023-05-29T11:12:15;102459.19;;;19.78;85.44
20455;BME280;10386;54.314;10.022;2023-05-29T11:15:11;102505.28;;;19.98;90.38
20455;BME280;10386;54.314;10.022;2023-05-29T11:20:26;102479.69;;;19.96;87.23
20455;BME280;10386;54.314;10.022;2023-05-29T11:23:03;102479.88;;;19.84;86.78
20455;BME280;10386;54.314;10.022;2023-05-29T11:25:33;102520.97;;;20.09;90.36
20455;BME280;10386;54.314;10.022;2023-05-29T11:28:01;102483.03;;;19.57;86.06
20455;BME280;10386;54.314;10.022;2023-05-29T11:30:30;102456.38;;;19.36;82.62
20455;BME280;10386;54.314;10.022;2023-05-29T11:33:00;102476.94;;;20.39;83.43
20455;BME280;10386;54.314;10.022;2023-05-29T11:35:29;102448.88;;;20.34;80.89
20455;BME280;10386;54.314;10.022;2023-05-29T11:37:57;102489.09;;;20.47;83.20
20455;BME280;10386;54.314;10.022;2023-05-29T11:40:24;102497.06;;;20.30;84.99
20455;BME280;10386;54.314;10.022;2023-05-29T11:42:51;102509.84;;;20.94;85.65
20455;BME280;10386;54.314;10.022;2023-05-29T11:45:20;102506.19;;;21.13;85.27
20455;BME280;10386;54.314;10.022;2023-05-29T11:47:59;102459.41;;;19.86;81.93
20455;BME280;10386;54.314;10.022;2023-05-29T11:50:27;102486.44;;;20.25;82.79
20455;BME280;10386;54.314;10.022;2023-05-29T11:52:58;102478.94;;;20.16;82.71
20455;BME280;10386;54.314;10.022;2023-05-29T11:55:26;102514.06;;;21.38;83.43
20455;BME280;10386;54.314;10.022;2023-05-29T11:57:57;102492.28;;;21.84;80.85
20455;BME280;10386;54.314;10.022;2023-05-29T12:00:26;102455.19;;;21.96;76.38
20455;BME280;10386;54.314;10.022;2023-05-29T12:02:58;102450.16;;;21.32;75.39
20455;BME280;10386;54.314;10.022;2023-05-29T12:05:25;102447.47;;;21.51;75.63
20455;BME280;10386;54.314;10.022;2023-05-29T12:07:53;102473.00;;;20.84;77.95
20455;BME280;10386;54.314;10.022;2023-05-29T12:10:23;102448.56;;;20.68;75.72
20455;BME280;10386;54.314;10.022;2023-05-29T12:12:52;102463.78;;;21.24;76.40
20455;BME280;10386;54.314;10.022;2023-05-29T12:15:19;102434.03;;;20.25;75.13
20455;BME280;10386;54.314;10.022;2023-05-29T12:17:52;102420.81;;;20.08;72.82
20455;BME280;10386;54.314;10.022;2023-05-29T12:20:22;102474.03;;;21.12;76.05
20455;BME280;10386;54.314;10.022;2023-05-29T12:22:50;102457.16;;;20.86;75.26
20455;BME280;10386;54.314;10.022;2023-05-29T12:25:19;102463.31;;;20.89;76.65
20455;BME280;10386;54.314;10.022;2023-05-29T12:27:47;102481.38;;;21.53;76.38
20455;BME280;10386;54.314;10.022;2023-05-29T12:30:20;102437.22;;;21.62;73.18
20455;BME280;10386;54.314;10.022;2023-05-29T12:32:59;102446.09;;;21.36;74.03
20455;BME280;10386;54.314;10.022;2023-05-29T12:35:28;102456.69;;;21.61;74.37
20455;BME280;10386;54.314;10.022;2023-05-29T12:40:28;102434.34;;;21.13;72.16
20455;BME280;10386;54.314;10.022;2023-05-29T12:43:11;102450.41;;;21.89;72.42
20455;BME280;10386;54.314;10.022;2023-05-29T12:45:37;102408.38;;;20.75;70.67
20455;BME280;10386;54.314;10.022;2023-05-29T12:48:07;102446.38;;;21.33;71.45
20455;BME280;10386;54.314;10.022;2023-05-29T12:50:40;102445.06;;;20.66;72.68
20455;BME280;10386;54.314;10.022;2023-05-29T12:53:08;102412.19;;;19.91;71.18
20455;BME280;10386;54.314;10.022;2023-05-29T12:55:37;102489.94;;;21.20;75.11
20455;BME280;10386;54.314;10.022;2023-05-29T12:58:06;102428.03;;;21.62;69.38
20455;BME280;10386;54.314;10.022;2023-05-29T13:00:34;102430.50;;;21.65;69.75
20455;BME280;10386;54.314;10.022;2023-05-29T13:03:04;102467.63;;;22.11;72.48
20455;BME280;10386;54.314;10.022;2023-05-29T13:05:33;102451.78;;;21.64;72.09
20455;BME280;10386;54.314;10.022;2023-05-29T13:08:00;102452.09;;;21.71;72.19
20455;BME280;10386;54.314;10.022;2023-05-29T13:10:27;102441.09;;;21.60;70.12